createdAt,value
2018-10-16T00:00:28.280Z,22.3
2018-10-16T00:01:17.769Z,22.3
2018-10-16T00:02:08.663Z,22.3
2018-10-16T00:02:59.000Z,22.3
2018-10-16T00:03:47.663Z,22.2
2018-10-16T00:04:38.587Z,22.3
2018-10-16T00:05:28.082Z,22.3
2018-10-16T00:06:18.708Z,22.3
2018-10-16T00:07:09.007Z,22.3
2018-10-16T00:25:22.628Z,22.2
2018-10-16T00:26:12.391Z,22.2
2018-10-16T00:27:02.201Z,22.2
2018-10-16T00:27:51.971Z,22.2
2018-10-16T00:28:42.344Z,22.2
2018-10-16T00:29:32.682Z,22.2
2018-10-16T00:30:22.997Z,22.2
2018-10-16T00:31:12.788Z,22.1
2018-10-16T00:32:02.294Z,22.2
2018-10-16T00:32:52.743Z,22.2
2018-10-16T00:33:42.981Z,22.2
2018-10-16T00:34:33.018Z,22.2
2018-10-16T00:35:23.372Z,22.2
2018-10-16T00:36:12.831Z,22.2
2018-10-16T00:37:02.363Z,22.1
2018-10-16T00:37:53.247Z,22.1
2018-10-16T00:38:43.331Z,22.1
2018-10-16T00:39:32.488Z,22.1
2018-10-16T00:40:23.683Z,22.1
2018-10-16T00:41:12.661Z,22.1
2018-10-16T00:42:02.989Z,22.1
2018-10-16T00:42:53.620Z,22.1
2018-10-16T00:43:43.900Z,22.1
2018-10-16T00:44:33.470Z,22.1
2018-10-16T00:45:23.851Z,22.1
2018-10-16T00:46:13.051Z,22.1
2018-10-16T00:47:03.964Z,22.1
2018-10-16T00:47:53.699Z,22.2
2018-10-16T00:48:44.115Z,22.1
2018-10-16T00:49:34.395Z,22.1
2018-10-16T00:50:23.950Z,22.1
2018-10-16T00:51:14.227Z,22.1
2018-10-16T00:52:04.328Z,22.1
2018-10-16T00:52:54.370Z,22.1
2018-10-16T00:53:44.149Z,22.1
2018-10-16T00:54:33.955Z,22.1
2018-10-16T00:55:24.608Z,22.1
2018-10-16T00:56:14.357Z,22.1
2018-10-16T00:57:04.659Z,22.1
2018-10-16T00:57:54.777Z,22.1
2018-10-16T00:58:44.514Z,22.1
2018-10-16T00:59:34.350Z,22.1
2018-10-16T01:00:24.885Z,22.1
2018-10-16T01:01:15.227Z,22.1
2018-10-16T01:02:05.325Z,22.1
2018-10-16T01:02:55.135Z,22.1
2018-10-16T01:03:44.950Z,22.1
2018-10-16T01:04:35.246Z,22.1
2018-10-16T01:05:25.309Z,22.1
2018-10-16T01:06:15.370Z,22.1
2018-10-16T01:07:05.442Z,22.1
2018-10-16T01:07:55.464Z,22.1
2018-10-16T01:08:45.589Z,22.1
2018-10-16T01:09:35.027Z,22.1
2018-10-16T01:10:25.644Z,22.1
2018-10-16T01:11:15.452Z,22.1
2018-10-16T01:12:05.764Z,22.1
2018-10-16T01:12:55.591Z,22.1
2018-10-16T01:13:45.949Z,22.1
2018-10-16T01:14:35.719Z,22.1
2018-10-16T01:15:26.034Z,22.1
2018-10-16T01:16:15.810Z,22.1
2018-10-16T01:17:06.191Z,22.1
2018-10-16T01:17:56.458Z,22.1
2018-10-16T01:18:45.988Z,22.1
2018-10-16T01:19:35.798Z,22.1
2018-10-16T01:20:25.837Z,22.1
2018-10-16T01:21:16.443Z,22.1
2018-10-16T01:22:05.991Z,22.1
2018-10-16T01:22:56.580Z,22.1
2018-10-16T01:23:46.363Z,22.1
2018-10-16T01:24:36.441Z,22.1
2018-10-16T01:25:26.789Z,22.1
2018-10-16T01:26:16.252Z,22.1
2018-10-16T01:27:06.886Z,22.1
2018-10-16T01:27:57.266Z,22.1
2018-10-16T01:28:46.724Z,22.1
2018-10-16T01:29:36.793Z,22.1
2018-10-16T01:30:26.875Z,22.1
2018-10-16T01:31:16.995Z,22.1
2018-10-16T01:32:07.265Z,22.1
2018-10-16T01:32:57.586Z,22.1
2018-10-16T01:33:46.812Z,22.1
2018-10-16T01:34:37.450Z,22.1
2018-10-16T01:35:26.937Z,22
2018-10-16T01:36:17.857Z,22
2018-10-16T01:37:07.626Z,22
2018-10-16T01:37:57.120Z,22.1
2018-10-16T01:38:47.445Z,22
2018-10-16T01:39:37.546Z,22.1
2018-10-16T01:40:27.869Z,22.1
2018-10-16T01:41:17.885Z,22
2018-10-16T01:42:07.987Z,22
2018-10-16T01:42:58.082Z,22
2018-10-16T01:43:48.061Z,22.1
2018-10-16T01:44:37.662Z,22
2018-10-16T01:45:28.222Z,22.1
2018-10-16T01:46:17.775Z,22
2018-10-16T01:47:08.349Z,22
2018-10-16T01:47:58.392Z,22
2018-10-16T01:48:48.517Z,22
2018-10-16T01:49:37.999Z,22
2018-10-16T01:50:28.073Z,22
2018-10-16T01:51:18.672Z,22
2018-10-16T01:52:08.453Z,22
2018-10-16T01:52:58.808Z,22
2018-10-16T01:53:48.831Z,22
2018-10-16T01:54:38.363Z,22
2018-10-16T01:55:28.443Z,22
2018-10-16T01:56:18.498Z,22
2018-10-16T01:57:09.384Z,22
2018-10-16T01:57:59.166Z,22
2018-10-16T01:58:49.471Z,22
2018-10-16T01:59:38.762Z,22
2018-10-16T02:00:28.803Z,22
2018-10-16T02:01:19.461Z,22
2018-10-16T02:02:09.743Z,22
2018-10-16T02:02:58.696Z,22
2018-10-16T02:03:49.582Z,22
2018-10-16T02:04:39.668Z,22
2018-10-16T02:05:29.438Z,22
2018-10-16T02:06:19.528Z,22
2018-10-16T02:07:09.287Z,22
2018-10-16T02:07:59.905Z,22
2018-10-16T02:08:50.485Z,22
2018-10-16T02:09:39.773Z,22
2018-10-16T02:10:30.101Z,22
2018-10-16T02:11:20.151Z,21.9
2018-10-16T02:12:10.170Z,22
2018-10-16T02:13:00.276Z,21.9
2018-10-16T02:13:49.777Z,21.9
2018-10-16T02:14:40.337Z,21.9
2018-10-16T02:15:29.909Z,21.9
2018-10-16T02:16:20.527Z,22
2018-10-16T02:17:10.593Z,21.9
2018-10-16T02:18:00.387Z,21.9
2018-10-16T02:18:50.993Z,21.9
2018-10-16T02:19:41.024Z,21.9
2018-10-16T02:20:30.858Z,21.9
2018-10-16T02:21:20.900Z,21.9
2018-10-16T02:22:10.660Z,21.9
2018-10-16T02:23:00.977Z,21.9
2018-10-16T02:23:51.135Z,21.9
2018-10-16T02:24:40.567Z,21.9
2018-10-16T02:25:30.922Z,21.9
2018-10-16T02:26:21.265Z,21.9
2018-10-16T02:27:11.070Z,21.9
2018-10-16T02:28:01.122Z,21.9
2018-10-16T02:28:51.205Z,21.9
2018-10-16T02:29:41.222Z,21.9
2018-10-16T02:30:31.026Z,21.9
2018-10-16T02:31:21.648Z,21.9
2018-10-16T02:32:11.685Z,21.9
2018-10-16T02:33:01.492Z,21.9
2018-10-16T02:33:51.795Z,21.9
2018-10-16T02:34:41.609Z,21.9
2018-10-16T02:35:31.679Z,21.9
2018-10-16T02:36:21.700Z,21.9
2018-10-16T02:37:12.059Z,21.9
2018-10-16T02:38:01.290Z,21.9
2018-10-16T02:38:52.191Z,21.9
2018-10-16T02:39:42.009Z,21.9
2018-10-16T02:40:32.029Z,21.9
2018-10-16T02:41:22.376Z,21.9
2018-10-16T02:42:12.169Z,21.9
2018-10-16T02:43:02.527Z,21.9
2018-10-16T02:43:52.296Z,21.9
2018-10-16T02:44:42.658Z,21.9
2018-10-16T02:45:32.417Z,21.9
2018-10-16T02:46:22.441Z,21.9
2018-10-16T02:47:12.841Z,21.9
2018-10-16T02:48:02.858Z,21.9
2018-10-16T02:48:52.646Z,21.9
2018-10-16T02:49:43.050Z,21.9
2018-10-16T02:50:32.758Z,21.9
2018-10-16T02:51:22.535Z,21.9
2018-10-16T02:52:12.593Z,21.9
2018-10-16T02:53:02.941Z,21.9
2018-10-16T02:53:53.279Z,21.9
2018-10-16T02:54:43.083Z,21.9
2018-10-16T02:55:33.422Z,21.9
2018-10-16T02:56:23.253Z,21.9
2018-10-16T02:57:12.996Z,21.9
2018-10-16T02:58:03.333Z,21.9
2018-10-16T02:58:53.667Z,21.9
2018-10-16T02:59:43.960Z,21.9
2018-10-16T03:00:33.758Z,21.9
2018-10-16T03:01:23.550Z,21.9
2018-10-16T03:02:13.925Z,21.9
2018-10-16T03:03:03.978Z,21.9
2018-10-16T03:03:54.065Z,21.9
2018-10-16T03:04:43.839Z,21.9
2018-10-16T03:05:33.635Z,21.9
2018-10-16T03:06:24.244Z,21.9
2018-10-16T03:07:13.707Z,21.9
2018-10-16T03:08:04.360Z,21.9
2018-10-16T03:08:54.147Z,21.9
2018-10-16T03:09:43.846Z,21.9
2018-10-16T03:10:34.226Z,21.9
2018-10-16T03:11:24.572Z,21.9
2018-10-16T03:12:14.369Z,21.8
2018-10-16T03:13:04.439Z,21.9
2018-10-16T03:13:54.512Z,21.9
2018-10-16T03:14:44.531Z,21.9
2018-10-16T03:15:34.891Z,21.9
2018-10-16T03:16:24.695Z,21.9
2018-10-16T03:17:14.734Z,21.9
2018-10-16T03:18:05.077Z,21.9
2018-10-16T03:18:54.568Z,21.8
2018-10-16T03:19:44.621Z,21.8
2018-10-16T03:20:35.408Z,21.9
2018-10-16T03:21:24.757Z,21.9
2018-10-16T03:22:15.362Z,21.8
2018-10-16T03:23:05.436Z,21.8
2018-10-16T03:23:55.531Z,21.9
2018-10-16T03:24:45.006Z,21.9
2018-10-16T03:25:35.082Z,21.9
2018-10-16T03:26:25.935Z,21.8
2018-10-16T03:27:15.198Z,21.8
2018-10-16T03:28:05.534Z,21.8
2018-10-16T03:28:55.593Z,21.9
2018-10-16T03:29:45.978Z,21.8
2018-10-16T03:30:35.732Z,21.8
2018-10-16T03:31:25.780Z,21.8
2018-10-16T03:32:15.853Z,21.8
2018-10-16T03:33:05.906Z,21.8
2018-10-16T03:33:56.243Z,21.8
2018-10-16T03:34:45.978Z,21.8
2018-10-16T03:35:36.581Z,21.8
2018-10-16T03:36:25.893Z,21.8
2018-10-16T03:37:15.903Z,21.8
2018-10-16T03:38:05.696Z,21.8
2018-10-16T03:38:56.032Z,21.8
2018-10-16T03:39:46.648Z,21.8
2018-10-16T03:40:36.732Z,21.8
2018-10-16T03:41:26.552Z,21.8
2018-10-16T03:42:16.870Z,21.8
2018-10-16T03:43:06.896Z,21.8
2018-10-16T03:43:56.992Z,21.8
2018-10-16T03:44:46.735Z,21.8
2018-10-16T03:45:36.797Z,21.8
2018-10-16T03:46:26.302Z,21.8
2018-10-16T03:47:17.014Z,21.8
2018-10-16T03:48:07.253Z,21.8
2018-10-16T03:48:57.059Z,21.8
2018-10-16T03:49:46.839Z,21.8
2018-10-16T03:50:37.216Z,21.8
2018-10-16T03:51:26.951Z,21.8
2018-10-16T03:52:17.024Z,21.8
2018-10-16T03:53:07.628Z,21.8
2018-10-16T03:53:57.447Z,21.8
2018-10-16T03:54:47.729Z,21.8
2018-10-16T03:55:37.817Z,21.8
2018-10-16T03:56:27.901Z,21.8
2018-10-16T03:57:18.205Z,21.8
2018-10-16T03:58:08.017Z,21.8
2018-10-16T03:58:57.786Z,21.8
2018-10-16T03:59:48.145Z,21.8
2018-10-16T04:00:38.228Z,21.8
2018-10-16T04:01:28.256Z,21.8
2018-10-16T04:02:18.031Z,21.8
2018-10-16T04:03:08.071Z,21.8
2018-10-16T04:03:58.158Z,21.8
2018-10-16T04:04:48.217Z,21.8
2018-10-16T04:05:38.256Z,21.8
2018-10-16T04:06:28.792Z,21.8
2018-10-16T04:07:18.140Z,21.8
2018-10-16T04:08:08.754Z,21.8
2018-10-16T04:08:58.806Z,21.8
2018-10-16T04:09:48.605Z,21.8
2018-10-16T04:10:38.343Z,21.8
2018-10-16T04:11:29.241Z,21.8
2018-10-16T04:12:19.033Z,21.8
2018-10-16T04:13:09.152Z,21.8
2018-10-16T04:13:59.769Z,21.8
2018-10-16T04:14:48.973Z,21.8
2018-10-16T04:15:39.000Z,21.8
2018-10-16T04:16:28.791Z,21.8
2018-10-16T04:17:19.481Z,21.8
2018-10-16T04:18:09.243Z,21.8
2018-10-16T04:18:58.973Z,21.8
2018-10-16T04:19:49.622Z,21.8
2018-10-16T04:20:39.386Z,21.8
2018-10-16T04:21:29.750Z,21.8
2018-10-16T04:22:20.419Z,21.8
2018-10-16T04:23:09.314Z,21.8
2018-10-16T04:23:59.337Z,21.8
2018-10-16T04:24:49.694Z,21.8
2018-10-16T04:25:39.754Z,21.8
2018-10-16T04:26:29.812Z,21.8
2018-10-16T04:27:20.197Z,21.8
2018-10-16T04:28:10.274Z,21.8
2018-10-16T04:29:00.167Z,21.8
2018-10-16T04:29:50.329Z,21.8
2018-10-16T04:30:39.851Z,21.8
2018-10-16T04:31:30.437Z,21.8
2018-10-16T04:32:20.264Z,21.8
2018-10-16T04:33:09.762Z,21.8
2018-10-16T04:34:00.101Z,21.8
2018-10-16T04:34:49.883Z,21.8
2018-10-16T04:35:40.763Z,21.8
2018-10-16T04:36:30.836Z,21.8
2018-10-16T04:54:44.703Z,21.8
2018-10-16T04:55:34.801Z,21.8
2018-10-16T04:56:24.807Z,21.8
2018-10-16T04:57:15.157Z,21.8
2018-10-16T04:58:05.205Z,21.8
2018-10-16T04:58:54.735Z,21.8
2018-10-16T04:59:45.065Z,21.8
2018-10-16T05:00:35.140Z,21.8
2018-10-16T05:01:25.582Z,21.8
2018-10-16T05:02:15.088Z,21.8
2018-10-16T05:03:05.558Z,21.8
2018-10-16T05:03:55.575Z,21.8
2018-10-16T05:04:45.512Z,21.8
2018-10-16T05:05:35.455Z,21.8
2018-10-16T05:06:25.569Z,21.8
2018-10-16T05:07:15.724Z,21.8
2018-10-16T05:08:06.296Z,21.8
2018-10-16T05:08:55.432Z,21.8
2018-10-16T05:09:45.519Z,21.8
2018-10-16T05:10:36.172Z,21.8
2018-10-16T05:11:26.249Z,21.8
2018-10-16T05:12:15.967Z,21.8
2018-10-16T05:13:06.237Z,21.8
2018-10-16T05:13:56.094Z,21.8
2018-10-16T05:14:46.467Z,21.8
2018-10-16T05:15:36.474Z,21.8
2018-10-16T05:16:25.979Z,21.8
2018-10-16T05:17:16.389Z,21.8
2018-10-16T05:18:06.126Z,21.8
2018-10-16T05:18:56.164Z,21.8
2018-10-16T05:19:46.284Z,21.9
2018-10-16T05:20:36.564Z,21.9
2018-10-16T05:21:26.932Z,21.9
2018-10-16T05:22:17.016Z,21.9
2018-10-16T05:23:07.026Z,22
2018-10-16T05:23:56.827Z,22
2018-10-16T05:24:47.230Z,22
2018-10-16T05:25:37.483Z,22.1
2018-10-16T05:26:27.331Z,22.1
2018-10-16T05:27:17.149Z,22.1
2018-10-16T05:28:07.495Z,22.1
2018-10-16T05:28:58.047Z,22.1
2018-10-16T05:29:47.396Z,22.1
2018-10-16T05:30:37.582Z,22
2018-10-16T05:31:29.150Z,22
2018-10-16T05:32:17.774Z,22
2018-10-16T05:33:07.918Z,22
2018-10-16T05:33:57.593Z,22
2018-10-16T05:34:48.081Z,22
2018-10-16T05:35:38.073Z,22
2018-10-16T05:36:28.003Z,22
2018-10-16T05:37:17.528Z,21.9
2018-10-16T05:38:08.148Z,22
2018-10-16T05:38:58.270Z,21.9
2018-10-16T05:39:48.276Z,21.9
2018-10-16T05:40:37.808Z,21.9
2018-10-16T05:41:28.400Z,21.9
2018-10-16T05:42:18.173Z,21.9
2018-10-16T05:43:08.250Z,21.9
2018-10-16T05:43:58.565Z,21.9
2018-10-16T05:44:48.645Z,21.9
2018-10-16T05:45:38.685Z,21.9
2018-10-16T05:46:29.030Z,21.9
2018-10-16T05:47:19.087Z,21.9
2018-10-16T05:48:08.598Z,21.9
2018-10-16T05:48:59.067Z,21.9
2018-10-16T05:49:48.996Z,21.9
2018-10-16T05:50:39.076Z,21.9
2018-10-16T05:51:29.376Z,21.9
2018-10-16T05:52:18.375Z,21.9
2018-10-16T05:53:09.283Z,21.9
2018-10-16T05:53:58.822Z,21.9
2018-10-16T05:54:49.397Z,21.9
2018-10-16T05:55:39.430Z,21.9
2018-10-16T05:56:29.495Z,21.9
2018-10-16T05:57:19.605Z,21.9
2018-10-16T05:58:09.383Z,21.9
2018-10-16T05:58:59.370Z,21.9
2018-10-16T05:59:49.455Z,21.9
2018-10-16T06:00:39.543Z,21.9
2018-10-16T06:01:29.528Z,21.9
2018-10-16T06:02:19.077Z,21.9
2018-10-16T06:03:09.997Z,21.9
2018-10-16T06:03:59.485Z,21.9
2018-10-16T06:04:49.860Z,21.9
2018-10-16T06:05:40.908Z,21.9
2018-10-16T06:06:29.960Z,21.9
2018-10-16T06:07:19.685Z,21.9
2018-10-16T06:08:09.809Z,21.9
2018-10-16T06:08:59.862Z,21.9
2018-10-16T06:09:50.487Z,21.9
2018-10-16T06:10:40.116Z,21.9
2018-10-16T06:11:29.761Z,21.9
2018-10-16T06:12:21.344Z,21.9
2018-10-16T06:13:10.455Z,21.9
2018-10-16T06:14:00.852Z,21.9
2018-10-16T06:14:50.611Z,21.9
2018-10-16T06:15:40.395Z,21.9
2018-10-16T06:16:30.968Z,21.9
2018-10-16T06:17:21.255Z,21.9
2018-10-16T06:18:10.795Z,21.9
2018-10-16T06:19:00.584Z,21.9
2018-10-16T06:19:50.643Z,21.9
2018-10-16T06:20:41.282Z,21.9
2018-10-16T06:21:31.035Z,21.8
2018-10-16T06:22:21.367Z,21.9
2018-10-16T06:23:10.878Z,21.9
2018-10-16T06:24:01.493Z,21.9
2018-10-16T06:24:51.575Z,21.9
2018-10-16T06:25:41.636Z,21.9
2018-10-16T06:26:32.079Z,21.8
2018-10-16T06:27:21.791Z,21.9
2018-10-16T06:28:11.870Z,21.9
2018-10-16T06:29:01.625Z,21.8
2018-10-16T06:29:51.982Z,21.8
2018-10-16T06:30:42.244Z,21.8
2018-10-16T06:31:31.807Z,21.8
2018-10-16T06:32:21.571Z,21.8
2018-10-16T06:33:12.114Z,21.9
2018-10-16T06:34:02.220Z,21.8
2018-10-16T06:34:51.926Z,21.8
2018-10-16T06:35:42.411Z,21.8
2018-10-16T06:36:32.591Z,21.8
2018-10-16T06:37:22.236Z,21.8
2018-10-16T06:38:11.972Z,21.8
2018-10-16T06:39:02.343Z,21.8
2018-10-16T06:39:52.106Z,21.8
2018-10-16T06:40:43.402Z,21.8
2018-10-16T06:41:32.916Z,21.8
2018-10-16T06:42:22.588Z,21.8
2018-10-16T06:43:12.658Z,21.8
2018-10-16T06:44:02.708Z,21.8
2018-10-16T06:44:53.038Z,21.8
2018-10-16T06:45:42.848Z,21.8
2018-10-16T06:46:33.953Z,21.8
2018-10-16T06:47:23.788Z,21.8
2018-10-16T06:48:14.541Z,21.8
2018-10-16T06:49:03.576Z,21.8
2018-10-16T06:49:53.132Z,21.8
2018-10-16T06:50:43.235Z,21.8
2018-10-16T06:51:33.270Z,21.8
2018-10-16T06:52:23.310Z,21.8
2018-10-16T06:53:13.381Z,21.8
2018-10-16T06:54:03.108Z,21.8
2018-10-16T06:54:53.604Z,21.8
2018-10-16T06:55:43.268Z,21.8
2018-10-16T06:56:33.655Z,21.8
2018-10-16T06:57:23.990Z,21.8
2018-10-16T06:58:13.425Z,21.8
2018-10-16T06:59:04.395Z,21.8
2018-10-16T06:59:54.155Z,21.8
2018-10-16T07:00:43.060Z,21.8
2018-10-16T07:01:33.996Z,21.8
2018-10-16T07:02:24.386Z,21.8
2018-10-16T07:03:14.412Z,21.8
2018-10-16T07:04:04.740Z,21.8
2018-10-16T07:04:54.518Z,21.8
2018-10-16T07:05:43.694Z,21.8
2018-10-16T07:06:34.383Z,21.8
2018-10-16T07:07:25.319Z,21.8
2018-10-16T07:08:14.454Z,21.8
2018-10-16T07:09:05.101Z,21.8
2018-10-16T07:09:54.599Z,20.8
2018-10-16T07:10:44.977Z,33.8
2018-10-16T07:11:34.729Z,49
2018-10-16T07:12:25.331Z,51.9
2018-10-16T07:13:14.561Z,51.4
2018-10-16T07:14:04.644Z,50.8
2018-10-16T07:14:56.313Z,50.2
2018-10-16T07:15:45.044Z,49.6
2018-10-16T07:16:35.118Z,48.9
2018-10-16T07:17:25.682Z,48.3
2018-10-16T07:18:14.934Z,47.7
2018-10-16T07:19:05.593Z,47.1
2018-10-16T07:19:55.037Z,46.4
2018-10-16T07:20:45.902Z,45.9
2018-10-16T07:21:36.016Z,45.3
2018-10-16T07:22:25.219Z,44.7
2018-10-16T07:23:15.499Z,44.2
2018-10-16T07:24:06.208Z,43.6
2018-10-16T07:24:55.732Z,43.1
2018-10-16T07:25:45.764Z,42.6
2018-10-16T07:26:36.116Z,42.1
2018-10-16T07:27:26.173Z,41.6
2018-10-16T07:28:16.268Z,41.2
2018-10-16T07:29:06.312Z,40.8
2018-10-16T07:29:56.386Z,40.3
2018-10-16T07:30:46.132Z,39.9
2018-10-16T07:31:36.521Z,39.5
2018-10-16T07:32:26.531Z,39.1
2018-10-16T07:33:16.614Z,38.7
2018-10-16T07:34:06.397Z,40.6
2018-10-16T07:34:56.721Z,43.3
2018-10-16T07:35:46.529Z,53.9
2018-10-16T07:36:36.868Z,56.3
2018-10-16T07:37:26.643Z,55.4
2018-10-16T07:38:18.361Z,53.2
2018-10-16T07:39:07.441Z,51.2
2018-10-16T07:39:56.584Z,50.3
2018-10-16T07:40:47.418Z,49.6
2018-10-16T07:41:36.656Z,49.1
2018-10-16T07:42:27.346Z,48.5
2018-10-16T07:43:16.793Z,47.9
2018-10-16T07:44:06.849Z,47.3
2018-10-16T07:44:57.722Z,46.6
2018-10-16T07:45:47.530Z,46.1
2018-10-16T07:46:37.905Z,45.6
2018-10-16T07:47:27.357Z,44.9
2018-10-16T07:48:17.936Z,45.6
2018-10-16T07:49:07.516Z,49.3
2018-10-16T07:49:57.813Z,56.3
2018-10-16T07:50:47.626Z,58.8
2018-10-16T07:51:38.015Z,59
2018-10-16T07:53:18.377Z,55.5
2018-10-16T07:54:07.879Z,53.4
2018-10-16T07:54:58.256Z,53.1
2018-10-16T07:55:48.327Z,54.3
2018-10-16T07:56:38.329Z,55.9
2018-10-16T07:57:28.629Z,56.9
2018-10-16T07:58:18.179Z,57.3
2018-10-16T07:59:08.530Z,57
2018-10-16T07:59:58.591Z,56.5
2018-10-16T08:00:48.654Z,56.1
2018-10-16T08:01:37.799Z,56.1
2018-10-16T08:02:27.735Z,56.4
2018-10-16T08:03:18.564Z,57
2018-10-16T08:04:08.596Z,57.5
2018-10-16T08:04:59.241Z,57.8
2018-10-16T08:05:49.073Z,57.9
2018-10-16T08:06:39.074Z,57.9
2018-10-16T08:07:28.258Z,57.8
2018-10-16T08:08:20.001Z,57.9
2018-10-16T08:09:09.270Z,58.1
2018-10-16T08:09:59.301Z,58.4
2018-10-16T08:10:48.786Z,58.6
2018-10-16T08:11:39.203Z,58.9
2018-10-16T08:12:28.915Z,58.9
2018-10-16T08:13:19.000Z,59
2018-10-16T08:14:09.301Z,59.1
2018-10-16T08:14:59.448Z,59.3
2018-10-16T08:15:49.488Z,59.4
2018-10-16T08:16:39.813Z,59.6
2018-10-16T08:17:29.131Z,59.8
2018-10-16T08:18:19.973Z,60
2018-10-16T08:19:09.727Z,60.1
2018-10-16T08:19:59.772Z,60.3
2018-10-16T08:20:49.257Z,60.4
2018-10-16T08:21:39.900Z,60.6
2018-10-16T08:22:29.945Z,60.7
2018-10-16T08:23:20.006Z,60.9
2018-10-16T08:24:10.109Z,61
2018-10-16T08:25:00.491Z,61.2
2018-10-16T08:25:50.489Z,61.3
2018-10-16T08:26:40.264Z,61.4
2018-10-16T08:27:29.576Z,61.5
2018-10-16T08:28:20.682Z,61.6
2018-10-16T08:29:10.485Z,61.8
2018-10-16T08:30:00.971Z,61.9
2018-10-16T08:30:50.814Z,62.1
2018-10-16T08:31:40.953Z,62.2
2018-10-16T08:32:30.971Z,62.3
2018-10-16T08:33:19.886Z,62.4
2018-10-16T08:34:11.278Z,62.5
2018-10-16T08:35:01.219Z,62.7
2018-10-16T08:35:51.185Z,62.8
2018-10-16T08:36:42.071Z,62.9
2018-10-16T08:37:31.368Z,63
2018-10-16T08:38:21.158Z,63.1
2018-10-16T08:39:11.207Z,63.3
2018-10-16T08:40:00.723Z,63.4
2018-10-16T08:40:51.865Z,63.5
2018-10-16T08:41:41.755Z,63.6
2018-10-16T08:42:31.455Z,63.8
2018-10-16T08:43:21.212Z,63.9
2018-10-16T08:44:11.860Z,64.1
2018-10-16T08:45:02.810Z,64.2
2018-10-16T08:45:51.417Z,64.4
2018-10-16T08:46:41.777Z,64.5
2018-10-16T08:47:31.966Z,64.6
2018-10-16T08:48:22.179Z,64.7
2018-10-16T08:49:11.940Z,64.8
2018-10-16T08:50:02.276Z,64.8
2018-10-16T08:50:52.366Z,64.9
2018-10-16T08:51:42.112Z,65
2018-10-16T08:52:31.639Z,65.1
2018-10-16T09:09:01.176Z,66.9
2018-10-16T09:09:51.854Z,66.9
2018-10-16T09:10:41.610Z,67
2018-10-16T09:11:31.158Z,67.1
2018-10-16T09:12:21.714Z,67.1
2018-10-16T09:13:12.950Z,67.3
2018-10-16T09:14:02.964Z,67.3
2018-10-16T09:14:51.619Z,67.4
2018-10-16T09:15:41.649Z,67.5
2018-10-16T09:16:32.020Z,67.6
2018-10-16T09:17:22.083Z,67.6
2018-10-16T09:18:12.137Z,67.7
2018-10-16T09:19:02.452Z,67.8
2018-10-16T09:19:51.989Z,67.9
2018-10-16T09:20:42.598Z,67.9
2018-10-16T09:21:32.638Z,68
2018-10-16T09:22:22.730Z,68.1
2018-10-16T09:23:12.239Z,68.2
2018-10-16T09:24:02.645Z,68.3
2018-10-16T09:24:52.808Z,68.3
2018-10-16T09:25:43.195Z,68.4
2018-10-16T09:26:32.535Z,68.5
2018-10-16T09:27:22.802Z,68.6
2018-10-16T09:28:12.568Z,68.6
2018-10-16T09:29:02.912Z,68.7
2018-10-16T09:29:53.006Z,68.8
2018-10-16T09:30:43.310Z,68.8
2018-10-16T09:31:33.090Z,68.8
2018-10-16T09:32:23.452Z,68.8
2018-10-16T09:33:13.231Z,68.9
2018-10-16T09:34:03.605Z,68.9
2018-10-16T09:34:53.069Z,69
2018-10-16T09:35:43.665Z,69.1
2018-10-16T09:36:33.748Z,69.1
2018-10-16T09:37:23.989Z,69.2
2018-10-16T09:38:14.012Z,69.3
2018-10-16T09:39:03.357Z,69.3
2018-10-16T09:39:53.745Z,69.4
2018-10-16T09:40:44.032Z,69.4
2018-10-16T09:41:36.924Z,69.5
2018-10-16T09:42:23.394Z,69.6
2018-10-16T09:43:13.726Z,69.6
2018-10-16T09:44:05.594Z,69.7
2018-10-16T09:44:54.464Z,69.8
2018-10-16T09:45:44.237Z,69.8
2018-10-16T09:46:33.932Z,69.8
2018-10-16T09:47:24.554Z,69.9
2018-10-16T09:48:14.009Z,69.9
2018-10-16T09:49:04.382Z,69.9
2018-10-16T09:49:53.980Z,69.9
2018-10-16T09:50:44.218Z,69.9
2018-10-16T09:51:34.879Z,70
2018-10-16T09:52:24.937Z,70
2018-10-16T09:53:14.702Z,70
2018-10-16T09:54:04.464Z,70.1
2018-10-16T09:54:55.361Z,70.1
2018-10-16T09:55:45.177Z,70.1
2018-10-16T09:56:34.942Z,70.2
2018-10-16T09:57:23.841Z,70.2
2018-10-16T09:58:14.786Z,70.3
2018-10-16T09:59:05.141Z,70.3
2018-10-16T09:59:55.141Z,70.3
2018-10-16T10:00:45.635Z,70.3
2018-10-16T10:01:35.322Z,70.3
2018-10-16T10:02:25.427Z,70.3
2018-10-16T10:03:14.567Z,70.3
2018-10-16T10:04:05.796Z,70.4
2018-10-16T10:04:55.803Z,70.4
2018-10-16T10:05:45.610Z,70.4
2018-10-16T10:06:35.681Z,70.3
2018-10-16T10:07:25.759Z,70.4
2018-10-16T10:08:15.803Z,70.3
2018-10-16T10:09:05.593Z,70.4
2018-10-16T10:09:55.923Z,70.4
2018-10-16T10:10:46.036Z,70.5
2018-10-16T10:11:36.608Z,70.5
2018-10-16T10:12:26.105Z,70.5
2018-10-16T10:13:16.471Z,70.5
2018-10-16T10:14:06.523Z,70.6
2018-10-16T10:14:55.993Z,70.6
2018-10-16T10:15:46.380Z,70.6
2018-10-16T10:16:36.936Z,70.6
2018-10-16T10:17:26.751Z,70.7
2018-10-16T10:18:16.287Z,70.7
2018-10-16T10:19:06.042Z,70.6
2018-10-16T10:19:56.661Z,70.7
2018-10-16T10:20:47.016Z,70.7
2018-10-16T10:21:37.005Z,70.7
2018-10-16T10:22:26.845Z,70.7
2018-10-16T10:23:17.271Z,70.7
2018-10-16T10:24:07.243Z,70.7
2018-10-16T10:24:57.017Z,70.6
2018-10-16T10:25:47.122Z,70.6
2018-10-16T10:26:36.289Z,70.6
2018-10-16T10:27:27.210Z,70.6
2018-10-16T10:28:17.307Z,70.6
2018-10-16T10:29:07.658Z,70.7
2018-10-16T10:29:57.417Z,70.7
2018-10-16T10:30:46.922Z,70.7
2018-10-16T10:31:37.539Z,70.7
2018-10-16T10:32:27.594Z,70.7
2018-10-16T10:33:17.676Z,70.7
2018-10-16T10:34:07.737Z,70.8
2018-10-16T10:34:58.061Z,70.8
2018-10-16T10:35:48.151Z,70.8
2018-10-16T10:36:37.917Z,70.8
2018-10-16T10:37:27.968Z,70.8
2018-10-16T10:38:18.049Z,70.9
2018-10-16T10:39:07.781Z,70.9
2018-10-16T10:39:57.879Z,70.9
2018-10-16T10:40:48.205Z,70.9
2018-10-16T10:41:38.339Z,70.9
2018-10-16T10:42:28.690Z,70.9
2018-10-16T10:43:18.745Z,70.9
2018-10-16T10:44:07.924Z,70.9
2018-10-16T10:44:58.565Z,70.9
2018-10-16T10:45:48.727Z,70.9
2018-10-16T10:46:38.692Z,70.9
2018-10-16T10:47:29.022Z,70.9
2018-10-16T10:48:18.815Z,70.9
2018-10-16T10:49:08.893Z,71
2018-10-16T10:49:59.695Z,71
2018-10-16T10:50:51.469Z,71
2018-10-16T10:51:42.756Z,71
2018-10-16T10:52:29.092Z,71.1
2018-10-16T10:53:19.471Z,71.1
2018-10-16T10:54:09.505Z,71.1
2018-10-16T10:54:59.304Z,71.1
2018-10-16T10:55:49.657Z,71.1
2018-10-16T10:56:40.626Z,71.1
2018-10-16T10:57:29.974Z,71
2018-10-16T10:58:20.333Z,70.9
2018-10-16T10:59:09.697Z,70.9
2018-10-16T11:00:00.200Z,70.9
2018-10-16T11:00:50.310Z,70.9
2018-10-16T11:01:40.137Z,70.9
2018-10-16T11:02:30.162Z,71
2018-10-16T11:03:21.721Z,71
2018-10-16T11:04:09.932Z,71
2018-10-16T11:05:00.540Z,70.9
2018-10-16T11:05:50.122Z,70.9
2018-10-16T11:06:40.502Z,70.8
2018-10-16T11:07:30.478Z,70.8
2018-10-16T11:08:20.512Z,70.8
2018-10-16T11:09:12.012Z,70.7
2018-10-16T11:10:00.362Z,70.7
2018-10-16T11:10:50.755Z,70.6
2018-10-16T11:11:40.484Z,70.6
2018-10-16T11:12:30.872Z,70.6
2018-10-16T11:13:20.863Z,70.5
2018-10-16T11:14:10.404Z,70.4
2018-10-16T11:15:01.364Z,70.3
2018-10-16T11:15:51.148Z,70.3
2018-10-16T11:16:41.176Z,70.3
2018-10-16T11:17:30.968Z,70.3
2018-10-16T11:18:20.776Z,70.2
2018-10-16T11:19:11.147Z,70.2
2018-10-16T11:20:01.453Z,70.2
2018-10-16T11:20:51.523Z,70.1
2018-10-16T11:21:41.552Z,70.1
2018-10-16T11:22:31.311Z,70.1
2018-10-16T11:23:21.842Z,70.1
2018-10-16T11:24:11.724Z,70.1
2018-10-16T11:25:01.729Z,70
2018-10-16T11:25:51.813Z,69.9
2018-10-16T11:26:41.593Z,69.9
2018-10-16T11:27:31.672Z,69.8
2018-10-16T11:28:22.011Z,69.8
2018-10-16T11:29:11.212Z,69.7
2018-10-16T11:30:02.156Z,69.7
2018-10-16T11:30:51.651Z,69.7
2018-10-16T11:31:41.995Z,69.7
2018-10-16T11:32:32.323Z,69.7
2018-10-16T11:33:21.802Z,69.7
2018-10-16T11:34:12.460Z,69.7
2018-10-16T11:35:02.501Z,69.7
2018-10-16T11:35:52.580Z,69.6
2018-10-16T11:36:42.624Z,69.6
2018-10-16T11:37:32.693Z,69.6
2018-10-16T11:38:22.423Z,69.6
2018-10-16T11:39:13.925Z,69.6
2018-10-16T11:40:02.548Z,69.6
2018-10-16T11:40:52.352Z,69.5
2018-10-16T11:41:42.960Z,69.4
2018-10-16T11:42:33.010Z,69.4
2018-10-16T11:43:23.359Z,69.4
2018-10-16T11:44:12.577Z,69.4
2018-10-16T11:45:03.778Z,69.4
2018-10-16T11:45:54.108Z,69.4
2018-10-16T11:46:42.474Z,69.3
2018-10-16T11:47:33.400Z,69.3
2018-10-16T11:48:23.437Z,69.1
2018-10-16T11:49:13.512Z,69.1
2018-10-16T11:50:04.194Z,69
2018-10-16T11:50:53.694Z,68.9
2018-10-16T11:51:43.416Z,68.9
2018-10-16T11:52:33.500Z,68.9
2018-10-16T11:53:23.524Z,68.9
2018-10-16T11:54:13.907Z,68.8
2018-10-16T11:55:03.672Z,68.8
2018-10-16T11:55:54.192Z,68.7
2018-10-16T11:56:43.790Z,68.6
2018-10-16T11:57:33.859Z,68.6
2018-10-16T11:58:23.926Z,68.5
2018-10-16T11:59:14.964Z,68.4
2018-10-16T12:00:04.328Z,68.4
2018-10-16T12:00:54.093Z,68.4
2018-10-16T12:01:44.179Z,68.3